sensor_id;sensor_type;location;lat;lon;timestamp;pressure;altitude;pressure_sealevel;temperature;humidity
77205;BME280;66188;46.626;18.866;2022-12-20T00:00:44;102165.50;;;18.11;51.18
77205;BME280;66188;46.626;18.866;2022-12-20T00:03:10;102167.34;;;18.11;51.26
77205;BME280;66188;46.626;18.866;2022-12-20T00:05:36;102163.38;;;18.05;51.44
77205;BME280;66188;46.626;18.866;2022-12-20T00:08:02;102165.25;;;18.05;51.21
77205;BME280;66188;46.626;18.866;2022-12-20T00:10:27;102147.66;;;17.91;51.23
77205;BME280;66188;46.626;18.866;2022-12-20T00:12:53;102155.47;;;17.94;51.25
77205;BME280;66188;46.626;18.866;2022-12-20T00:15:19;102156.72;;;17.90;50.97
77205;BME280;66188;46.626;18.866;2022-12-20T00:17:44;102174.03;;;17.97;51.08
77205;BME280;66188;46.626;18.866;2022-12-20T00:20:10;102174.03;;;17.97;51.19
77205;BME280;66188;46.626;18.866;2022-12-20T00:22:36;102175.03;;;17.96;50.89
77205;BME280;66188;46.626;18.866;2022-12-20T00:25:02;102167.09;;;17.95;51.20
77205;BME280;66188;46.626;18.866;2022-12-20T00:27:27;102162.84;;;17.92;50.70
77205;BME280;66188;46.626;18.866;2022-12-20T00:29:54;102156.44;;;17.93;50.89
77205;BME280;66188;46.626;18.866;2022-12-20T00:32:19;102159.28;;;17.92;50.88
77205;BME280;66188;46.626;18.866;2022-12-20T00:34:45;102167.50;;;17.90;50.88
77205;BME280;66188;46.626;18.866;2022-12-20T00:37:10;102158.88;;;17.87;51.14
77205;BME280;66188;46.626;18.866;2022-12-20T00:39:36;102153.59;;;17.85;50.94
77205;BME280;66188;46.626;18.866;2022-12-20T00:42:01;102157.31;;;17.84;50.84
77205;BME280;66188;46.626;18.866;2022-12-20T00:44:26;102138.59;;;17.73;51.20
77205;BME280;66188;46.626;18.866;2022-12-20T00:46:52;102139.44;;;17.74;50.65
77205;BME280;66188;46.626;18.866;2022-12-20T00:49:18;102157.59;;;17.81;51.28
77205;BME280;66188;46.626;18.866;2022-12-20T00:51:43;102148.50;;;17.73;50.83
77205;BME280;66188;46.626;18.866;2022-12-20T00:54:09;102171.22;;;17.80;50.85
77205;BME280;66188;46.626;18.866;2022-12-20T00:56:34;102169.63;;;17.77;50.87
77205;BME280;66188;46.626;18.866;2022-12-20T00:59:00;102167.94;;;17.76;51.01
77205;BME280;66188;46.626;18.866;2022-12-20T01:01:28;102161.69;;;17.76;51.14
77205;BME280;66188;46.626;18.866;2022-12-20T01:03:55;102141.41;;;17.62;51.06
77205;BME280;66188;46.626;18.866;2022-12-20T01:06:21;102133.91;;;17.65;50.84
77205;BME280;66188;46.626;18.866;2022-12-20T01:08:47;102135.91;;;17.73;51.00
77205;BME280;66188;46.626;18.866;2022-12-20T01:11:15;102126.97;;;17.73;50.83
77205;BME280;66188;46.626;18.866;2022-12-20T01:13:43;102133.47;;;17.70;50.77
77205;BME280;66188;46.626;18.866;2022-12-20T01:16:16;102117.06;;;17.63;50.79
77205;BME280;66188;46.626;18.866;2022-12-20T01:18:42;102119.31;;;17.68;51.02
77205;BME280;66188;46.626;18.866;2022-12-20T01:21:11;102115.22;;;17.64;50.67
77205;BME280;66188;46.626;18.866;2022-12-20T01:23:37;102105.16;;;17.56;50.72
77205;BME280;66188;46.626;18.866;2022-12-20T01:26:05;102112.81;;;17.61;50.87
77205;BME280;66188;46.626;18.866;2022-12-20T01:28:34;102112.53;;;17.64;50.77
77205;BME280;66188;46.626;18.866;2022-12-20T01:31:00;102110.53;;;17.56;50.52
77205;BME280;66188;46.626;18.866;2022-12-20T01:33:26;102124.28;;;17.63;50.67
77205;BME280;66188;46.626;18.866;2022-12-20T01:36:04;102123.56;;;17.61;50.46
77205;BME280;66188;46.626;18.866;2022-12-20T01:38:30;102117.63;;;17.57;50.38
77205;BME280;66188;46.626;18.866;2022-12-20T01:40:57;102096.19;;;17.46;51.22
77205;BME280;66188;46.626;18.866;2022-12-20T01:43:23;102115.63;;;17.59;50.56
77205;BME280;66188;46.626;18.866;2022-12-20T01:45:49;102113.25;;;17.56;50.36
77205;BME280;66188;46.626;18.866;2022-12-20T01:48:20;102105.16;;;17.56;50.46
77205;BME280;66188;46.626;18.866;2022-12-20T01:50:47;102107.97;;;17.55;50.48
77205;BME280;66188;46.626;18.866;2022-12-20T01:53:15;102102.59;;;17.55;50.55
77205;BME280;66188;46.626;18.866;2022-12-20T01:55:42;102094.75;;;17.52;50.54
77205;BME280;66188;46.626;18.866;2022-12-20T01:58:11;102086.41;;;17.45;50.63
77205;BME280;66188;46.626;18.866;2022-12-20T02:00:38;102097.38;;;17.53;50.39
77205;BME280;66188;46.626;18.866;2022-12-20T02:03:06;102091.97;;;17.53;50.58
77205;BME280;66188;46.626;18.866;2022-12-20T02:05:35;102075.22;;;17.50;50.26
77205;BME280;66188;46.626;18.866;2022-12-20T02:08:00;102056.38;;;17.40;50.18
77205;BME280;66188;46.626;18.866;2022-12-20T02:13:11;102066.28;;;17.49;50.37
77205;BME280;66188;46.626;18.866;2022-12-20T02:15:57;102058.53;;;17.46;50.52
77205;BME280;66188;46.626;18.866;2022-12-20T02:18:41;102065.47;;;17.49;50.19
77205;BME280;66188;46.626;18.866;2022-12-20T02:21:13;102065.59;;;17.47;50.06
77205;BME280;66188;46.626;18.866;2022-12-20T02:32:01;102051.44;;;17.45;50.20
77205;BME280;66188;46.626;18.866;2022-12-20T02:34:29;102042.50;;;17.45;50.41
77205;BME280;66188;46.626;18.866;2022-12-20T02:36:56;102034.84;;;17.40;50.28
77205;BME280;66188;46.626;18.866;2022-12-20T02:39:22;102034.56;;;17.43;50.06
77205;BME280;66188;46.626;18.866;2022-12-20T02:41:54;102032.16;;;17.40;50.21
77205;BME280;66188;46.626;18.866;2022-12-20T02:44:24;102035.72;;;17.41;50.43
77205;BME280;66188;46.626;18.866;2022-12-20T02:47:13;102027.75;;;17.39;50.23
77205;BME280;66188;46.626;18.866;2022-12-20T02:49:41;102027.22;;;17.36;49.98
77205;BME280;66188;46.626;18.866;2022-12-20T02:52:08;102021.84;;;17.36;50.27
77205;BME280;66188;46.626;18.866;2022-12-20T02:54:35;102022.69;;;17.36;50.17
77205;BME280;66188;46.626;18.866;2022-12-20T02:57:08;102023.66;;;17.35;50.20
77205;BME280;66188;46.626;18.866;2022-12-20T02:59:40;102005.97;;;17.23;50.29
77205;BME280;66188;46.626;18.866;2022-12-20T03:02:06;102024.66;;;17.34;50.13
77205;BME280;66188;46.626;18.866;2022-12-20T03:04:35;102011.91;;;17.27;50.07
77205;BME280;66188;46.626;18.866;2022-12-20T03:09:32;102015.75;;;17.34;49.99
77205;BME280;66188;46.626;18.866;2022-12-20T03:11:58;102008.81;;;17.31;50.03
77205;BME280;66188;46.626;18.866;2022-12-20T03:14:24;102021.25;;;17.32;50.14
77205;BME280;66188;46.626;18.866;2022-12-20T03:16:50;102023.09;;;17.32;50.12
77205;BME280;66188;46.626;18.866;2022-12-20T03:19:16;102024.97;;;17.31;49.94
77205;BME280;66188;46.626;18.866;2022-12-20T03:21:41;102000.72;;;17.22;49.95
77205;BME280;66188;46.626;18.866;2022-12-20T03:24:07;101995.75;;;17.27;50.05
77205;BME280;66188;46.626;18.866;2022-12-20T03:26:33;102006.41;;;17.28;49.84
77205;BME280;66188;46.626;18.866;2022-12-20T03:28:58;101993.91;;;17.27;49.85
77205;BME280;66188;46.626;18.866;2022-12-20T03:31:23;101985.31;;;17.24;49.60
77205;BME280;66188;46.626;18.866;2022-12-20T03:33:49;101977.50;;;17.21;49.96
77205;BME280;66188;46.626;18.866;2022-12-20T03:36:14;101983.00;;;17.19;49.88
77205;BME280;66188;46.626;18.866;2022-12-20T03:38:40;101983.00;;;17.19;49.78
77205;BME280;66188;46.626;18.866;2022-12-20T03:41:05;102004.84;;;17.26;49.86
77205;BME280;66188;46.626;18.866;2022-12-20T03:43:31;102002.28;;;17.24;49.86
77205;BME280;66188;46.626;18.866;2022-12-20T03:45:56;101991.50;;;17.24;49.78
77205;BME280;66188;46.626;18.866;2022-12-20T03:48:22;101996.06;;;17.24;49.88
77205;BME280;66188;46.626;18.866;2022-12-20T03:50:47;101994.50;;;17.21;49.82
77205;BME280;66188;46.626;18.866;2022-12-20T03:53:13;102005.28;;;17.21;49.65
77205;BME280;66188;46.626;18.866;2022-12-20T03:55:38;102000.88;;;17.20;49.94
77205;BME280;66188;46.626;18.866;2022-12-20T03:58:04;102003.41;;;17.22;49.66
77205;BME280;66188;46.626;18.866;2022-12-20T04:00:29;101991.78;;;17.12;49.51
77205;BME280;66188;46.626;18.866;2022-12-20T04:02:54;101997.19;;;17.21;49.70
77205;BME280;66188;46.626;18.866;2022-12-20T04:05:20;101993.78;;;17.19;49.59
77205;BME280;66188;46.626;18.866;2022-12-20T04:07:46;101983.59;;;17.13;49.71
77205;BME280;66188;46.626;18.866;2022-12-20T04:10:11;101996.63;;;17.18;49.87
77205;BME280;66188;46.626;18.866;2022-12-20T04:12:36;101997.59;;;17.17;49.87
77205;BME280;66188;46.626;18.866;2022-12-20T04:15:02;102000.28;;;17.17;50.00
77205;BME280;66188;46.626;18.866;2022-12-20T04:17:28;101995.91;;;17.16;49.70
77205;BME280;66188;46.626;18.866;2022-12-20T04:19:53;101994.06;;;17.16;49.71
77205;BME280;66188;46.626;18.866;2022-12-20T04:22:19;101981.63;;;17.15;49.70
77205;BME280;66188;46.626;18.866;2022-12-20T04:24:44;101978.91;;;17.15;49.52
77205;BME280;66188;46.626;18.866;2022-12-20T04:27:09;101972.41;;;17.08;49.74
77205;BME280;66188;46.626;18.866;2022-12-20T04:29:35;101969.00;;;17.06;49.71
77205;BME280;66188;46.626;18.866;2022-12-20T04:32:00;101962.63;;;17.07;49.80
77205;BME280;66188;46.626;18.866;2022-12-20T04:34:26;101953.00;;;17.04;49.59
77205;BME280;66188;46.626;18.866;2022-12-20T04:36:51;101963.22;;;17.11;49.53
77205;BME280;66188;46.626;18.866;2022-12-20T04:39:17;101964.03;;;17.11;49.40
77205;BME280;66188;46.626;18.866;2022-12-20T04:41:42;101964.03;;;17.11;49.38
77205;BME280;66188;46.626;18.866;2022-12-20T04:44:08;101952.16;;;17.04;49.05
77205;BME280;66188;46.626;18.866;2022-12-20T04:46:33;101965.59;;;17.04;49.42
77205;BME280;66188;46.626;18.866;2022-12-20T04:48:59;101969.72;;;17.08;49.44
77205;BME280;66188;46.626;18.866;2022-12-20T04:51:24;101963.06;;;17.02;49.29
77205;BME280;66188;46.626;18.866;2022-12-20T04:53:50;101975.09;;;17.08;49.47
77205;BME280;66188;46.626;18.866;2022-12-20T04:56:21;101973.25;;;17.08;49.34
77205;BME280;66188;46.626;18.866;2022-12-20T04:58:49;101966.47;;;17.04;49.23
77205;BME280;66188;46.626;18.866;2022-12-20T05:01:15;101965.47;;;17.05;49.38
77205;BME280;66188;46.626;18.866;2022-12-20T05:03:41;101983.28;;;17.06;49.39
77205;BME280;66188;46.626;18.866;2022-12-20T05:06:08;101978.78;;;17.07;49.35
77205;BME280;66188;46.626;18.866;2022-12-20T05:08:34;101969.28;;;16.93;49.30
77205;BME280;66188;46.626;18.866;2022-12-20T05:11:00;101980.88;;;17.03;49.35
77205;BME280;66188;46.626;18.866;2022-12-20T05:13:26;101970.84;;;16.96;49.02
77205;BME280;66188;46.626;18.866;2022-12-20T05:15:53;101964.47;;;16.97;48.95
77205;BME280;66188;46.626;18.866;2022-12-20T05:18:19;101963.78;;;16.95;49.07
77205;BME280;66188;46.626;18.866;2022-12-20T05:20:44;101973.94;;;17.01;49.19
77205;BME280;66188;46.626;18.866;2022-12-20T05:23:10;101976.50;;;17.02;49.00
77205;BME280;66188;46.626;18.866;2022-12-20T05:25:54;101961.78;;;16.97;49.27
77205;BME280;66188;46.626;18.866;2022-12-20T05:28:38;101963.19;;;17.01;48.90
77205;BME280;66188;46.626;18.866;2022-12-20T05:31:04;101950.88;;;16.89;49.25
77205;BME280;66188;46.626;18.866;2022-12-20T05:33:30;101954.41;;;16.99;49.09
77205;BME280;66188;46.626;18.866;2022-12-20T05:35:55;101959.09;;;16.97;49.11
77205;BME280;66188;46.626;18.866;2022-12-20T05:38:21;101967.75;;;17.00;48.92
77205;BME280;66188;46.626;18.866;2022-12-20T05:40:48;101976.25;;;17.05;49.08
77205;BME280;66188;46.626;18.866;2022-12-20T05:43:14;101979.47;;;17.09;49.30
77205;BME280;66188;46.626;18.866;2022-12-20T05:45:45;101966.44;;;17.14;48.77
77205;BME280;66188;46.626;18.866;2022-12-20T05:48:10;101962.63;;;17.17;49.30
77205;BME280;66188;46.626;18.866;2022-12-20T05:50:36;101959.09;;;17.26;49.49
77205;BME280;66188;46.626;18.866;2022-12-20T05:53:01;101953.97;;;17.32;49.30
77205;BME280;66188;46.626;18.866;2022-12-20T05:55:27;101949.59;;;17.41;49.27
77205;BME280;66188;46.626;18.866;2022-12-20T05:57:52;101950.84;;;17.46;49.17
77205;BME280;66188;46.626;18.866;2022-12-20T06:00:18;101952.09;;;17.52;49.06
77205;BME280;66188;46.626;18.866;2022-12-20T06:02:43;101943.75;;;17.55;49.02
77205;BME280;66188;46.626;18.866;2022-12-20T06:05:09;101944.19;;;17.60;49.11
77205;BME280;66188;46.626;18.866;2022-12-20T06:07:34;101949.00;;;17.66;49.08
77205;BME280;66188;46.626;18.866;2022-12-20T06:10:00;101945.16;;;17.68;48.81
77205;BME280;66188;46.626;18.866;2022-12-20T06:12:25;101942.47;;;17.68;48.80
77205;BME280;66188;46.626;18.866;2022-12-20T06:14:50;101951.06;;;17.72;48.65
77205;BME280;66188;46.626;18.866;2022-12-20T06:17:16;101946.25;;;17.76;48.92
77205;BME280;66188;46.626;18.866;2022-12-20T06:19:42;101937.63;;;17.72;49.01
77205;BME280;66188;46.626;18.866;2022-12-20T06:22:08;101944.00;;;17.71;49.03
77205;BME280;66188;46.626;18.866;2022-12-20T06:24:35;101934.91;;;17.72;48.44
77205;BME280;66188;46.626;18.866;2022-12-20T06:27:01;101946.09;;;17.77;48.54
77205;BME280;66188;46.626;18.866;2022-12-20T06:29:27;101944.41;;;17.76;48.53
77205;BME280;66188;46.626;18.866;2022-12-20T06:31:53;101946.53;;;17.82;48.59
77205;BME280;66188;46.626;18.866;2022-12-20T06:34:18;101954.00;;;17.88;48.43
77205;BME280;66188;46.626;18.866;2022-12-20T06:36:44;101944.66;;;17.92;48.36
77205;BME280;66188;46.626;18.866;2022-12-20T06:39:11;101924.25;;;17.80;48.12
77205;BME280;66188;46.626;18.866;2022-12-20T06:41:36;101955.97;;;17.96;48.03
77205;BME280;66188;46.626;18.866;2022-12-20T06:44:02;101963.06;;;17.97;48.16
77205;BME280;66188;46.626;18.866;2022-12-20T06:46:28;101950.47;;;17.88;47.81
77205;BME280;66188;46.626;18.866;2022-12-20T06:48:55;101962.38;;;17.95;47.86
77205;BME280;66188;46.626;18.866;2022-12-20T06:51:21;101958.13;;;17.92;48.27
77205;BME280;66188;46.626;18.866;2022-12-20T06:53:46;101940.69;;;17.87;48.06
77205;BME280;66188;46.626;18.866;2022-12-20T06:56:12;101944.94;;;17.89;47.88
77205;BME280;66188;46.626;18.866;2022-12-20T06:58:37;101930.63;;;17.89;47.87
77205;BME280;66188;46.626;18.866;2022-12-20T07:01:03;101936.00;;;17.89;47.67
77205;BME280;66188;46.626;18.866;2022-12-20T07:03:28;101938.25;;;17.93;47.71
77205;BME280;66188;46.626;18.866;2022-12-20T07:05:54;101930.63;;;17.89;47.60
77205;BME280;66188;46.626;18.866;2022-12-20T07:08:20;101916.19;;;17.90;47.66
77205;BME280;66188;46.626;18.866;2022-12-20T07:10:46;101930.28;;;18.01;47.56
77205;BME280;66188;46.626;18.866;2022-12-20T07:13:11;101918.25;;;17.96;47.29
77205;BME280;66188;46.626;18.866;2022-12-20T07:15:37;101925.28;;;18.06;47.30
77205;BME280;66188;46.626;18.866;2022-12-20T07:18:03;101921.16;;;18.12;47.54
77205;BME280;66188;46.626;18.866;2022-12-20T07:20:29;101913.38;;;18.09;47.19
77205;BME280;66188;46.626;18.866;2022-12-20T07:22:55;101929.34;;;18.20;47.59
77205;BME280;66188;46.626;18.866;2022-12-20T07:25:20;101918.16;;;18.15;47.24
77205;BME280;66188;46.626;18.866;2022-12-20T07:27:47;101933.66;;;18.30;46.83
77205;BME280;66188;46.626;18.866;2022-12-20T07:30:15;101931.69;;;18.33;47.09
77205;BME280;66188;46.626;18.866;2022-12-20T07:32:40;101938.63;;;18.35;47.00
77205;BME280;66188;46.626;18.866;2022-12-20T07:35:06;101933.06;;;18.37;47.17
77205;BME280;66188;46.626;18.866;2022-12-20T07:37:32;101922.97;;;18.39;46.81
77205;BME280;66188;46.626;18.866;2022-12-20T07:39:57;101925.53;;;18.40;46.80
77205;BME280;66188;46.626;18.866;2022-12-20T07:42:23;101927.94;;;18.43;46.63
77205;BME280;66188;46.626;18.866;2022-12-20T07:44:48;101935.00;;;18.44;46.74
77205;BME280;66188;46.626;18.866;2022-12-20T07:47:14;101907.66;;;18.39;46.73
77205;BME280;66188;46.626;18.866;2022-12-20T07:49:39;101913.72;;;18.51;46.87
77205;BME280;66188;46.626;18.866;2022-12-20T07:52:06;101889.47;;;18.41;46.88
77205;BME280;66188;46.626;18.866;2022-12-20T07:54:41;101892.16;;;18.51;46.41
77205;BME280;66188;46.626;18.866;2022-12-20T07:57:14;101884.75;;;18.53;46.65
77205;BME280;66188;46.626;18.866;2022-12-20T07:59:48;101909.03;;;18.70;46.73
77205;BME280;66188;46.626;18.866;2022-12-20T08:02:25;101906.25;;;18.80;46.33
77205;BME280;66188;46.626;18.866;2022-12-20T08:04:53;101910.19;;;18.85;46.43
77205;BME280;66188;46.626;18.866;2022-12-20T08:07:19;101899.91;;;18.89;46.20
77205;BME280;66188;46.626;18.866;2022-12-20T08:09:46;101907.41;;;18.95;45.88
77205;BME280;66188;46.626;18.866;2022-12-20T08:12:13;101913.19;;;19.00;46.15
77205;BME280;66188;46.626;18.866;2022-12-20T08:14:40;101901.22;;;19.03;46.22
77205;BME280;66188;46.626;18.866;2022-12-20T08:17:06;101910.56;;;19.08;46.09
77205;BME280;66188;46.626;18.866;2022-12-20T08:19:32;101905.84;;;19.10;45.75
77205;BME280;66188;46.626;18.866;2022-12-20T08:21:57;101882.56;;;19.09;45.57
77205;BME280;66188;46.626;18.866;2022-12-20T08:24:23;101896.47;;;19.22;45.44
77205;BME280;66188;46.626;18.866;2022-12-20T08:26:48;101895.31;;;19.25;45.70
77205;BME280;66188;46.626;18.866;2022-12-20T08:29:14;101878.44;;;19.23;45.72
77205;BME280;66188;46.626;18.866;2022-12-20T08:31:40;101882.28;;;19.38;45.02
77205;BME280;66188;46.626;18.866;2022-12-20T08:34:08;101873.75;;;19.50;45.25
77205;BME280;66188;46.626;18.866;2022-12-20T08:36:34;101876.38;;;19.60;44.97
77205;BME280;66188;46.626;18.866;2022-12-20T08:39:04;101878.41;;;19.66;44.72
77205;BME280;66188;46.626;18.866;2022-12-20T08:41:29;101881.63;;;19.70;44.44
77205;BME280;66188;46.626;18.866;2022-12-20T08:43:55;101878.44;;;19.74;45.10
77205;BME280;66188;46.626;18.866;2022-12-20T08:46:20;101875.56;;;19.76;44.80
77205;BME280;66188;46.626;18.866;2022-12-20T08:48:46;101880.66;;;19.79;44.84
77205;BME280;66188;46.626;18.866;2022-12-20T08:51:11;101867.00;;;19.88;44.85
77205;BME280;66188;46.626;18.866;2022-12-20T08:53:37;101854.66;;;19.78;45.28
77205;BME280;66188;46.626;18.866;2022-12-20T08:56:12;101872.94;;;19.92;45.08
77205;BME280;66188;46.626;18.866;2022-12-20T08:58:39;101879.22;;;19.92;45.37
77205;BME280;66188;46.626;18.866;2022-12-20T09:01:07;101880.38;;;19.90;45.28
77205;BME280;66188;46.626;18.866;2022-12-20T09:03:34;101886.97;;;19.87;45.88
77205;BME280;66188;46.626;18.866;2022-12-20T09:06:01;101879.16;;;19.84;45.79
77205;BME280;66188;46.626;18.866;2022-12-20T09:08:29;101869.22;;;19.85;46.14
77205;BME280;66188;46.626;18.866;2022-12-20T09:11:03;101862.78;;;19.86;46.16
77205;BME280;66188;46.626;18.866;2022-12-20T09:13:29;101860.94;;;19.86;45.92
77205;BME280;66188;46.626;18.866;2022-12-20T09:15:54;101853.84;;;19.85;46.11
77205;BME280;66188;46.626;18.866;2022-12-20T09:18:20;101848.28;;;19.87;46.74
77205;BME280;66188;46.626;18.866;2022-12-20T09:20:45;101847.06;;;19.81;46.84
77205;BME280;66188;46.626;18.866;2022-12-20T09:23:11;101849.81;;;19.89;46.61
77205;BME280;66188;46.626;18.866;2022-12-20T09:25:36;101852.34;;;19.91;46.40
77205;BME280;66188;46.626;18.866;2022-12-20T09:28:03;101849.81;;;19.89;46.86
77205;BME280;66188;46.626;18.866;2022-12-20T09:30:28;101846.78;;;19.92;46.53
77205;BME280;66188;46.626;18.866;2022-12-20T09:32:54;101854.88;;;19.92;46.62
77205;BME280;66188;46.626;18.866;2022-12-20T09:35:21;101851.66;;;19.89;47.02
77205;BME280;66188;46.626;18.866;2022-12-20T09:37:46;101832.34;;;19.76;47.28
77205;BME280;66188;46.626;18.866;2022-12-20T09:40:20;101853.16;;;19.83;47.65
77205;BME280;66188;46.626;18.866;2022-12-20T09:42:47;101855.34;;;19.80;47.63
77205;BME280;66188;46.626;18.866;2022-12-20T09:45:28;101853.78;;;19.69;47.73
77205;BME280;66188;46.626;18.866;2022-12-20T09:47:54;101875.44;;;19.77;47.54
77205;BME280;66188;46.626;18.866;2022-12-20T09:50:33;101862.06;;;19.76;47.74
77205;BME280;66188;46.626;18.866;2022-12-20T09:55:59;101857.38;;;19.78;47.93
77205;BME280;66188;46.626;18.866;2022-12-20T10:01:22;101854.09;;;19.66;48.10
77205;BME280;66188;46.626;18.866;2022-12-20T10:03:49;101836.84;;;19.59;47.29
77205;BME280;66188;46.626;18.866;2022-12-20T10:12:25;101822.66;;;19.57;47.93
77205;BME280;66188;46.626;18.866;2022-12-20T10:21:10;101791.06;;;19.49;48.05
77205;BME280;66188;46.626;18.866;2022-12-20T10:26:22;101789.69;;;19.45;48.27
77205;BME280;66188;46.626;18.866;2022-12-20T10:28:47;101786.13;;;19.45;47.65
77205;BME280;66188;46.626;18.866;2022-12-20T10:31:16;101786.66;;;19.48;47.83
77205;BME280;66188;46.626;18.866;2022-12-20T10:33:43;101785.97;;;19.46;47.79
77205;BME280;66188;46.626;18.866;2022-12-20T10:36:33;101774.16;;;19.39;48.26
77205;BME280;66188;46.626;18.866;2022-12-20T10:39:02;101785.75;;;19.40;48.01
77205;BME280;66188;46.626;18.866;2022-12-20T10:41:31;101759.53;;;19.24;48.42
77205;BME280;66188;46.626;18.866;2022-12-20T10:43:58;101785.72;;;19.32;48.42
77205;BME280;66188;46.626;18.866;2022-12-20T10:46:55;101791.75;;;19.26;47.95
77205;BME280;66188;46.626;18.866;2022-12-20T10:54:35;101778.31;;;19.08;48.06
77205;BME280;66188;46.626;18.866;2022-12-20T10:57:23;101771.56;;;19.04;48.26
77205;BME280;66188;46.626;18.866;2022-12-20T11:02:36;101754.94;;;18.91;48.54
77205;BME280;66188;46.626;18.866;2022-12-20T11:10:22;101742.19;;;18.75;48.35
77205;BME280;66188;46.626;18.866;2022-12-20T11:13:23;101731.72;;;18.72;48.45
77205;BME280;66188;46.626;18.866;2022-12-20T11:15:52;101714.31;;;18.67;48.70
77205;BME280;66188;46.626;18.866;2022-12-20T11:18:51;101710.94;;;18.65;48.83
77205;BME280;66188;46.626;18.866;2022-12-20T11:22:17;101705.84;;;18.62;49.09
77205;BME280;66188;46.626;18.866;2022-12-20T11:24:34;101702.47;;;18.60;48.84
77205;BME280;66188;46.626;18.866;2022-12-20T11:51:25;101697.66;;;18.28;49.54
77205;BME280;66188;46.626;18.866;2022-12-20T11:56:39;101672.81;;;18.16;49.79
77205;BME280;66188;46.626;18.866;2022-12-20T12:01:44;101673.13;;;18.13;49.99
77205;BME280;66188;46.626;18.866;2022-12-20T12:04:19;101669.75;;;18.11;49.67
77205;BME280;66188;46.626;18.866;2022-12-20T12:06:51;101668.75;;;18.12;49.61
77205;BME280;66188;46.626;18.866;2022-12-20T12:12:10;101662.56;;;18.20;49.62
77205;BME280;66188;46.626;18.866;2022-12-20T12:19:53;101654.75;;;18.35;49.31
77205;BME280;66188;46.626;18.866;2022-12-20T12:22:26;101648.88;;;18.39;49.70
77205;BME280;66188;46.626;18.866;2022-12-20T12:24:57;101634.09;;;18.43;49.48
77205;BME280;66188;46.626;18.866;2022-12-20T12:27:26;101634.34;;;18.50;49.51
77205;BME280;66188;46.626;18.866;2022-12-20T12:29:54;101642.44;;;18.50;49.12
77205;BME280;66188;46.626;18.866;2022-12-20T12:32:48;101640.78;;;18.57;49.26
77205;BME280;66188;46.626;18.866;2022-12-20T12:43:46;101638.81;;;18.67;48.77
77205;BME280;66188;46.626;18.866;2022-12-20T12:46:25;101645.41;;;18.72;49.09
77205;BME280;66188;46.626;18.866;2022-12-20T12:49:05;101648.97;;;18.73;48.85
77205;BME280;66188;46.626;18.866;2022-12-20T12:51:36;101638.88;;;18.75;48.83
77205;BME280;66188;46.626;18.866;2022-12-20T12:56:49;101629.41;;;18.71;49.07
77205;BME280;66188;46.626;18.866;2022-12-20T13:01:55;101632.84;;;18.81;49.04
77205;BME280;66188;46.626;18.866;2022-12-20T13:04:56;101638.91;;;18.83;48.71
77205;BME280;66188;46.626;18.866;2022-12-20T13:07:40;101648.66;;;18.84;48.97
77205;BME280;66188;46.626;18.866;2022-12-20T13:12:59;101633.88;;;18.88;48.57
77205;BME280;66188;46.626;18.866;2022-12-20T13:18:00;101644.50;;;18.89;48.71
77205;BME280;66188;46.626;18.866;2022-12-20T13:20:41;101633.69;;;18.89;48.38
77205;BME280;66188;46.626;18.866;2022-12-20T13:25:34;101631.19;;;18.88;48.00
77205;BME280;66188;46.626;18.866;2022-12-20T13:38:53;101610.03;;;18.75;47.63
77205;BME280;66188;46.626;18.866;2022-12-20T13:44:27;101607.00;;;18.70;47.36
77205;BME280;66188;46.626;18.866;2022-12-20T13:49:28;101604.25;;;18.62;47.51
77205;BME280;66188;46.626;18.866;2022-12-20T13:54:57;101606.63;;;18.65;47.57
77205;BME280;66188;46.626;18.866;2022-12-20T13:57:40;101591.63;;;18.63;47.65
77205;BME280;66188;46.626;18.866;2022-12-20T14:00:14;101595.00;;;18.65;47.47
77205;BME280;66188;46.626;18.866;2022-12-20T14:02:41;101594.00;;;18.66;47.69
77205;BME280;66188;46.626;18.866;2022-12-20T14:05:25;101600.44;;;18.73;47.55
77205;BME280;66188;46.626;18.866;2022-12-20T14:08:04;101595.19;;;18.71;47.83
77205;BME280;66188;46.626;18.866;2022-12-20T14:10:34;101587.94;;;18.72;47.46
77205;BME280;66188;46.626;18.866;2022-12-20T14:13:00;101606.31;;;18.76;47.54
77205;BME280;66188;46.626;18.866;2022-12-20T14:15:29;101603.50;;;18.78;47.76
77205;BME280;66188;46.626;18.866;2022-12-20T14:17:55;101603.31;;;18.79;47.59
77205;BME280;66188;46.626;18.866;2022-12-20T14:20:32;101597.06;;;18.79;47.35
77205;BME280;66188;46.626;18.866;2022-12-20T14:25:58;101585.28;;;18.80;47.09
77205;BME280;66188;46.626;18.866;2022-12-20T14:30:57;101580.06;;;18.78;46.95
77205;BME280;66188;46.626;18.866;2022-12-20T14:33:40;101579.22;;;18.78;46.94
77205;BME280;66188;46.626;18.866;2022-12-20T14:38:45;101570.44;;;18.84;47.01
77205;BME280;66188;46.626;18.866;2022-12-20T14:41:37;101568.47;;;18.86;47.39
77205;BME280;66188;46.626;18.866;2022-12-20T14:44:12;101557.66;;;18.86;46.83
77205;BME280;66188;46.626;18.866;2022-12-20T14:46:38;101556.81;;;18.85;46.71
77205;BME280;66188;46.626;18.866;2022-12-20T14:49:21;101550.41;;;18.86;46.95
77205;BME280;66188;46.626;18.866;2022-12-20T14:51:48;101545.72;;;18.88;47.21
77205;BME280;66188;46.626;18.866;2022-12-20T14:54:34;101547.56;;;18.88;47.07
77205;BME280;66188;46.626;18.866;2022-12-20T14:57:10;101533.03;;;18.81;46.63
77205;BME280;66188;46.626;18.866;2022-12-20T14:59:36;101544.84;;;18.88;46.78
77205;BME280;66188;46.626;18.866;2022-12-20T15:07:51;101540.13;;;18.90;46.63